sensor_id;sensor_type;location;lat;lon;timestamp;P1;durP1;ratioP1;P2;durP2;ratioP2
68765;SDS011;55756;45.582;11.484;2023-03-01T00:01:07;28.83;;;17.02;;
68765;SDS011;55756;45.582;11.484;2023-03-01T00:03:34;29.48;;;16.80;;
68765;SDS011;55756;45.582;11.484;2023-03-01T00:06:01;28.90;;;17.25;;
68765;SDS011;55756;45.582;11.484;2023-03-01T00:08:27;29.88;;;17.40;;
68765;SDS011;55756;45.582;11.484;2023-03-01T00:13:30;28.85;;;17.58;;
68765;SDS011;55756;45.582;11.484;2023-03-01T00:15:56;31.17;;;17.95;;
68765;SDS011;55756;45.582;11.484;2023-03-01T00:18:22;30.25;;;17.75;;
68765;SDS011;55756;45.582;11.484;2023-03-01T00:20:54;28.23;;;15.77;;
68765;SDS011;55756;45.582;11.484;2023-03-01T00:23:20;26.92;;;16.30;;
68765;SDS011;55756;45.582;11.484;2023-03-01T00:25:47;25.23;;;15.90;;
68765;SDS011;55756;45.582;11.484;2023-03-01T00:28:14;28.67;;;16.88;;
68765;SDS011;55756;45.582;11.484;2023-03-01T00:30:39;34.20;;;16.92;;
68765;SDS011;55756;45.582;11.484;2023-03-01T00:33:05;27.13;;;16.63;;
68765;SDS011;55756;45.582;11.484;2023-03-01T00:35:34;26.80;;;15.98;;
68765;SDS011;55756;45.582;11.484;2023-03-01T00:38:01;27.98;;;16.65;;
68765;SDS011;55756;45.582;11.484;2023-03-01T00:40:27;31.52;;;17.30;;
68765;SDS011;55756;45.582;11.484;2023-03-01T00:42:54;27.50;;;16.42;;
68765;SDS011;55756;45.582;11.484;2023-03-01T00:45:20;25.83;;;16.25;;
68765;SDS011;55756;45.582;11.484;2023-03-01T00:47:50;24.63;;;16.10;;
68765;SDS011;55756;45.582;11.484;2023-03-01T00:50:16;26.85;;;15.90;;
68765;SDS011;55756;45.582;11.484;2023-03-01T00:52:43;28.42;;;15.55;;
68765;SDS011;55756;45.582;11.484;2023-03-01T00:55:08;26.80;;;15.85;;
68765;SDS011;55756;45.582;11.484;2023-03-01T00:57:35;24.05;;;15.32;;
68765;SDS011;55756;45.582;11.484;2023-03-01T01:00:00;25.00;;;15.65;;
68765;SDS011;55756;45.582;11.484;2023-03-01T01:02:29;25.48;;;16.13;;
68765;SDS011;55756;45.582;11.484;2023-03-01T01:04:55;25.95;;;15.57;;
68765;SDS011;55756;45.582;11.484;2023-03-01T01:07:20;26.75;;;14.80;;
68765;SDS011;55756;45.582;11.484;2023-03-01T01:09:46;24.42;;;14.70;;
68765;SDS011;55756;45.582;11.484;2023-03-01T01:12:13;25.50;;;15.20;;
68765;SDS011;55756;45.582;11.484;2023-03-01T01:14:39;25.45;;;14.63;;
68765;SDS011;55756;45.582;11.484;2023-03-01T01:17:05;24.38;;;14.65;;
68765;SDS011;55756;45.582;11.484;2023-03-01T01:19:31;24.65;;;14.18;;
68765;SDS011;55756;45.582;11.484;2023-03-01T01:21:56;23.92;;;14.43;;
68765;SDS011;55756;45.582;11.484;2023-03-01T01:24:22;26.42;;;14.35;;
68765;SDS011;55756;45.582;11.484;2023-03-01T01:26:48;24.15;;;14.25;;
68765;SDS011;55756;45.582;11.484;2023-03-01T01:29:14;24.25;;;14.23;;
68765;SDS011;55756;45.582;11.484;2023-03-01T01:31:40;25.05;;;14.23;;
68765;SDS011;55756;45.582;11.484;2023-03-01T01:34:09;24.52;;;13.90;;
68765;SDS011;55756;45.582;11.484;2023-03-01T01:36:39;24.73;;;14.10;;
68765;SDS011;55756;45.582;11.484;2023-03-01T01:39:05;24.67;;;14.32;;
68765;SDS011;55756;45.582;11.484;2023-03-01T01:41:31;23.40;;;13.95;;
68765;SDS011;55756;45.582;11.484;2023-03-01T01:46:53;23.10;;;14.30;;
68765;SDS011;55756;45.582;11.484;2023-03-01T01:49:29;26.92;;;14.68;;
68765;SDS011;55756;45.582;11.484;2023-03-01T01:52:02;24.10;;;13.98;;
68765;SDS011;55756;45.582;11.484;2023-03-01T01:54:37;24.10;;;14.43;;
68765;SDS011;55756;45.582;11.484;2023-03-01T01:57:16;25.83;;;15.13;;
68765;SDS011;55756;45.582;11.484;2023-03-01T01:59:48;26.77;;;14.88;;
68765;SDS011;55756;45.582;11.484;2023-03-01T02:02:22;24.38;;;15.05;;
68765;SDS011;55756;45.582;11.484;2023-03-01T02:04:48;23.02;;;14.10;;
68765;SDS011;55756;45.582;11.484;2023-03-01T02:07:18;25.08;;;14.68;;
68765;SDS011;55756;45.582;11.484;2023-03-01T02:09:47;27.38;;;14.18;;
68765;SDS011;55756;45.582;11.484;2023-03-01T02:12:15;23.05;;;13.73;;
68765;SDS011;55756;45.582;11.484;2023-03-01T02:14:46;24.47;;;14.50;;
68765;SDS011;55756;45.582;11.484;2023-03-01T02:17:12;25.88;;;14.18;;
68765;SDS011;55756;45.582;11.484;2023-03-01T02:22:22;25.45;;;13.98;;
68765;SDS011;55756;45.582;11.484;2023-03-01T02:27:37;24.27;;;13.65;;
68765;SDS011;55756;45.582;11.484;2023-03-01T02:30:08;21.25;;;12.50;;
68765;SDS011;55756;45.582;11.484;2023-03-01T02:32:38;23.30;;;13.05;;
68765;SDS011;55756;45.582;11.484;2023-03-01T02:35:07;24.80;;;13.38;;
68765;SDS011;55756;45.582;11.484;2023-03-01T02:37:38;23.08;;;13.55;;
68765;SDS011;55756;45.582;11.484;2023-03-01T02:40:07;22.75;;;12.95;;
68765;SDS011;55756;45.582;11.484;2023-03-01T02:42:43;22.38;;;13.30;;
68765;SDS011;55756;45.582;11.484;2023-03-01T02:45:20;23.27;;;13.15;;
68765;SDS011;55756;45.582;11.484;2023-03-01T02:47:46;21.48;;;12.85;;
68765;SDS011;55756;45.582;11.484;2023-03-01T02:56:11;27.00;;;14.00;;
68765;SDS011;55756;45.582;11.484;2023-03-01T02:58:40;23.47;;;13.97;;
68765;SDS011;55756;45.582;11.484;2023-03-01T03:01:12;21.45;;;12.63;;
68765;SDS011;55756;45.582;11.484;2023-03-01T03:03:41;22.70;;;13.02;;
68765;SDS011;55756;45.582;11.484;2023-03-01T03:06:07;19.50;;;12.48;;
68765;SDS011;55756;45.582;11.484;2023-03-01T03:08:34;23.92;;;13.23;;
68765;SDS011;55756;45.582;11.484;2023-03-01T03:11:00;22.70;;;12.25;;
68765;SDS011;55756;45.582;11.484;2023-03-01T03:13:26;20.63;;;12.35;;
68765;SDS011;55756;45.582;11.484;2023-03-01T03:15:55;24.15;;;12.88;;
68765;SDS011;55756;45.582;11.484;2023-03-01T03:18:21;19.50;;;11.75;;
68765;SDS011;55756;45.582;11.484;2023-03-01T03:20:51;24.17;;;13.20;;
68765;SDS011;55756;45.582;11.484;2023-03-01T03:23:19;22.60;;;12.98;;
68765;SDS011;55756;45.582;11.484;2023-03-01T03:25:51;22.27;;;12.38;;
68765;SDS011;55756;45.582;11.484;2023-03-01T03:30:43;20.13;;;11.95;;
68765;SDS011;55756;45.582;11.484;2023-03-01T03:33:10;23.30;;;12.27;;
68765;SDS011;55756;45.582;11.484;2023-03-01T03:35:41;21.27;;;12.10;;
68765;SDS011;55756;45.582;11.484;2023-03-01T03:38:12;22.23;;;12.52;;
68765;SDS011;55756;45.582;11.484;2023-03-01T03:40:52;20.98;;;12.27;;
68765;SDS011;55756;45.582;11.484;2023-03-01T03:43:28;20.48;;;12.13;;
68765;SDS011;55756;45.582;11.484;2023-03-01T03:45:56;20.45;;;12.05;;
68765;SDS011;55756;45.582;11.484;2023-03-01T03:48:22;21.05;;;12.25;;
68765;SDS011;55756;45.582;11.484;2023-03-01T03:50:49;21.80;;;12.45;;
68765;SDS011;55756;45.582;11.484;2023-03-01T03:53:16;22.90;;;12.20;;
68765;SDS011;55756;45.582;11.484;2023-03-01T03:55:43;22.95;;;12.02;;
68765;SDS011;55756;45.582;11.484;2023-03-01T03:58:09;21.55;;;12.52;;
68765;SDS011;55756;45.582;11.484;2023-03-01T04:00:40;21.13;;;12.23;;
68765;SDS011;55756;45.582;11.484;2023-03-01T04:03:07;20.23;;;12.50;;
68765;SDS011;55756;45.582;11.484;2023-03-01T04:05:34;19.77;;;11.60;;
68765;SDS011;55756;45.582;11.484;2023-03-01T04:08:01;19.55;;;11.93;;
68765;SDS011;55756;45.582;11.484;2023-03-01T04:10:28;20.98;;;11.57;;
68765;SDS011;55756;45.582;11.484;2023-03-01T04:12:55;18.15;;;11.30;;
68765;SDS011;55756;45.582;11.484;2023-03-01T04:15:22;22.60;;;11.45;;
68765;SDS011;55756;45.582;11.484;2023-03-01T04:17:50;19.55;;;11.77;;
68765;SDS011;55756;45.582;11.484;2023-03-01T04:20:18;21.05;;;11.63;;
68765;SDS011;55756;45.582;11.484;2023-03-01T04:28:24;19.00;;;11.80;;
68765;SDS011;55756;45.582;11.484;2023-03-01T04:30:50;23.40;;;12.10;;
68765;SDS011;55756;45.582;11.484;2023-03-01T04:33:17;20.70;;;11.98;;
68765;SDS011;55756;45.582;11.484;2023-03-01T04:35:43;18.83;;;10.93;;
68765;SDS011;55756;45.582;11.484;2023-03-01T04:38:09;19.35;;;11.23;;
68765;SDS011;55756;45.582;11.484;2023-03-01T04:40:35;20.85;;;11.68;;
68765;SDS011;55756;45.582;11.484;2023-03-01T04:43:01;22.88;;;13.13;;
68765;SDS011;55756;45.582;11.484;2023-03-01T04:45:28;23.55;;;14.07;;
68765;SDS011;55756;45.582;11.484;2023-03-01T04:47:53;29.05;;;16.60;;
68765;SDS011;55756;45.582;11.484;2023-03-01T04:50:19;30.98;;;15.65;;
68765;SDS011;55756;45.582;11.484;2023-03-01T04:52:45;31.83;;;16.45;;
68765;SDS011;55756;45.582;11.484;2023-03-01T04:55:12;26.02;;;14.98;;
68765;SDS011;55756;45.582;11.484;2023-03-01T04:57:41;25.63;;;14.13;;
68765;SDS011;55756;45.582;11.484;2023-03-01T05:00:09;23.70;;;13.20;;
68765;SDS011;55756;45.582;11.484;2023-03-01T05:02:49;22.88;;;13.00;;
68765;SDS011;55756;45.582;11.484;2023-03-01T05:05:32;23.10;;;13.23;;
68765;SDS011;55756;45.582;11.484;2023-03-01T05:08:02;22.52;;;13.60;;
68765;SDS011;55756;45.582;11.484;2023-03-01T05:10:33;21.27;;;12.65;;
68765;SDS011;55756;45.582;11.484;2023-03-01T05:13:01;19.25;;;11.90;;
68765;SDS011;55756;45.582;11.484;2023-03-01T05:15:29;20.33;;;12.23;;
68765;SDS011;55756;45.582;11.484;2023-03-01T05:17:57;22.27;;;12.27;;
68765;SDS011;55756;45.582;11.484;2023-03-01T05:20:25;21.35;;;12.68;;
68765;SDS011;55756;45.582;11.484;2023-03-01T05:22:52;21.73;;;12.95;;
68765;SDS011;55756;45.582;11.484;2023-03-01T05:25:21;24.77;;;12.90;;
68765;SDS011;55756;45.582;11.484;2023-03-01T05:27:47;25.52;;;15.75;;
68765;SDS011;55756;45.582;11.484;2023-03-01T05:30:13;27.27;;;18.00;;
68765;SDS011;55756;45.582;11.484;2023-03-01T05:32:43;25.58;;;13.60;;
68765;SDS011;55756;45.582;11.484;2023-03-01T05:35:14;23.10;;;13.20;;
68765;SDS011;55756;45.582;11.484;2023-03-01T05:37:45;32.05;;;17.20;;
68765;SDS011;55756;45.582;11.484;2023-03-01T05:40:16;103.00;;;48.60;;
68765;SDS011;55756;45.582;11.484;2023-03-01T05:42:47;39.05;;;21.67;;
68765;SDS011;55756;45.582;11.484;2023-03-01T05:45:15;31.80;;;17.90;;
68765;SDS011;55756;45.582;11.484;2023-03-01T05:47:42;24.38;;;14.07;;
68765;SDS011;55756;45.582;11.484;2023-03-01T05:50:10;23.95;;;13.77;;
68765;SDS011;55756;45.582;11.484;2023-03-01T05:52:38;21.23;;;12.75;;
68765;SDS011;55756;45.582;11.484;2023-03-01T05:55:03;22.08;;;13.75;;
68765;SDS011;55756;45.582;11.484;2023-03-01T05:57:30;22.23;;;13.15;;
68765;SDS011;55756;45.582;11.484;2023-03-01T05:59:55;23.05;;;13.48;;
68765;SDS011;55756;45.582;11.484;2023-03-01T06:02:21;22.20;;;13.15;;
68765;SDS011;55756;45.582;11.484;2023-03-01T06:04:47;22.65;;;13.25;;
68765;SDS011;55756;45.582;11.484;2023-03-01T06:07:12;22.08;;;13.10;;
68765;SDS011;55756;45.582;11.484;2023-03-01T06:09:38;24.33;;;12.77;;
68765;SDS011;55756;45.582;11.484;2023-03-01T06:12:04;22.38;;;12.90;;
68765;SDS011;55756;45.582;11.484;2023-03-01T06:14:30;21.92;;;12.93;;
68765;SDS011;55756;45.582;11.484;2023-03-01T06:16:57;21.77;;;12.88;;
68765;SDS011;55756;45.582;11.484;2023-03-01T06:19:23;21.95;;;13.15;;
68765;SDS011;55756;45.582;11.484;2023-03-01T06:21:49;24.25;;;12.77;;
68765;SDS011;55756;45.582;11.484;2023-03-01T06:24:15;22.20;;;13.02;;
68765;SDS011;55756;45.582;11.484;2023-03-01T06:26:41;25.83;;;13.63;;
68765;SDS011;55756;45.582;11.484;2023-03-01T06:29:07;22.25;;;13.02;;
68765;SDS011;55756;45.582;11.484;2023-03-01T06:31:33;23.63;;;12.98;;
68765;SDS011;55756;45.582;11.484;2023-03-01T06:33:59;22.15;;;12.98;;
68765;SDS011;55756;45.582;11.484;2023-03-01T06:36:25;22.23;;;13.15;;
68765;SDS011;55756;45.582;11.484;2023-03-01T06:38:51;23.65;;;12.85;;
68765;SDS011;55756;45.582;11.484;2023-03-01T06:41:16;22.63;;;12.90;;
68765;SDS011;55756;45.582;11.484;2023-03-01T06:43:42;21.73;;;12.30;;
68765;SDS011;55756;45.582;11.484;2023-03-01T06:46:08;21.98;;;12.88;;
68765;SDS011;55756;45.582;11.484;2023-03-01T06:48:34;22.27;;;12.73;;
68765;SDS011;55756;45.582;11.484;2023-03-01T06:50:59;22.05;;;12.32;;
68765;SDS011;55756;45.582;11.484;2023-03-01T06:53:26;22.23;;;12.77;;
68765;SDS011;55756;45.582;11.484;2023-03-01T06:55:56;23.88;;;12.65;;
68765;SDS011;55756;45.582;11.484;2023-03-01T06:58:25;23.70;;;12.60;;
68765;SDS011;55756;45.582;11.484;2023-03-01T07:00:51;23.17;;;13.38;;
68765;SDS011;55756;45.582;11.484;2023-03-01T07:03:17;24.70;;;13.15;;
68765;SDS011;55756;45.582;11.484;2023-03-01T07:05:42;28.33;;;13.90;;
68765;SDS011;55756;45.582;11.484;2023-03-01T07:08:09;28.45;;;14.15;;
68765;SDS011;55756;45.582;11.484;2023-03-01T07:10:35;28.45;;;13.73;;
68765;SDS011;55756;45.582;11.484;2023-03-01T07:13:01;25.10;;;13.88;;
68765;SDS011;55756;45.582;11.484;2023-03-01T07:15:27;27.90;;;14.23;;
68765;SDS011;55756;45.582;11.484;2023-03-01T07:17:53;29.52;;;14.75;;
68765;SDS011;55756;45.582;11.484;2023-03-01T07:20:19;30.75;;;16.52;;
68765;SDS011;55756;45.582;11.484;2023-03-01T07:22:49;29.60;;;15.10;;
68765;SDS011;55756;45.582;11.484;2023-03-01T07:25:17;26.48;;;14.00;;
68765;SDS011;55756;45.582;11.484;2023-03-01T07:27:43;33.15;;;15.90;;
68765;SDS011;55756;45.582;11.484;2023-03-01T07:30:09;27.63;;;15.70;;
68765;SDS011;55756;45.582;11.484;2023-03-01T07:32:35;26.20;;;15.23;;
68765;SDS011;55756;45.582;11.484;2023-03-01T07:35:01;28.08;;;14.85;;
68765;SDS011;55756;45.582;11.484;2023-03-01T07:37:30;29.00;;;15.70;;
68765;SDS011;55756;45.582;11.484;2023-03-01T07:39:56;28.33;;;15.95;;
68765;SDS011;55756;45.582;11.484;2023-03-01T07:42:22;31.45;;;16.02;;
68765;SDS011;55756;45.582;11.484;2023-03-01T07:44:47;33.63;;;16.85;;
68765;SDS011;55756;45.582;11.484;2023-03-01T07:47:13;27.30;;;14.98;;
68765;SDS011;55756;45.582;11.484;2023-03-01T07:49:39;25.33;;;15.68;;
68765;SDS011;55756;45.582;11.484;2023-03-01T07:52:05;27.98;;;16.23;;
68765;SDS011;55756;45.582;11.484;2023-03-01T07:54:30;29.33;;;16.15;;
68765;SDS011;55756;45.582;11.484;2023-03-01T07:56:56;27.13;;;15.82;;
68765;SDS011;55756;45.582;11.484;2023-03-01T07:59:22;28.38;;;15.77;;
68765;SDS011;55756;45.582;11.484;2023-03-01T08:01:54;30.33;;;15.27;;
68765;SDS011;55756;45.582;11.484;2023-03-01T08:04:20;26.75;;;14.25;;
68765;SDS011;55756;45.582;11.484;2023-03-01T08:06:50;29.40;;;14.80;;
68765;SDS011;55756;45.582;11.484;2023-03-01T08:09:19;26.25;;;14.32;;
68765;SDS011;55756;45.582;11.484;2023-03-01T08:11:45;24.67;;;14.63;;
68765;SDS011;55756;45.582;11.484;2023-03-01T08:14:11;26.42;;;13.55;;
68765;SDS011;55756;45.582;11.484;2023-03-01T08:16:36;24.23;;;14.23;;
68765;SDS011;55756;45.582;11.484;2023-03-01T08:19:06;24.00;;;13.82;;
68765;SDS011;55756;45.582;11.484;2023-03-01T08:21:33;21.95;;;14.25;;
68765;SDS011;55756;45.582;11.484;2023-03-01T08:24:05;30.02;;;15.25;;
68765;SDS011;55756;45.582;11.484;2023-03-01T08:26:32;28.85;;;14.77;;
68765;SDS011;55756;45.582;11.484;2023-03-01T08:28:59;25.50;;;14.60;;
68765;SDS011;55756;45.582;11.484;2023-03-01T08:31:32;26.45;;;13.93;;
68765;SDS011;55756;45.582;11.484;2023-03-01T08:34:03;34.28;;;15.15;;
68765;SDS011;55756;45.582;11.484;2023-03-01T08:36:35;29.58;;;14.60;;
68765;SDS011;55756;45.582;11.484;2023-03-01T08:41:29;24.65;;;14.23;;
68765;SDS011;55756;45.582;11.484;2023-03-01T08:43:56;24.88;;;13.48;;
68765;SDS011;55756;45.582;11.484;2023-03-01T08:46:31;28.52;;;13.93;;
68765;SDS011;55756;45.582;11.484;2023-03-01T08:48:58;26.48;;;13.73;;
68765;SDS011;55756;45.582;11.484;2023-03-01T08:51:25;27.27;;;14.15;;
68765;SDS011;55756;45.582;11.484;2023-03-01T08:54:00;25.90;;;15.18;;
68765;SDS011;55756;45.582;11.484;2023-03-01T08:56:26;27.25;;;15.68;;
68765;SDS011;55756;45.582;11.484;2023-03-01T08:58:51;34.03;;;17.52;;
68765;SDS011;55756;45.582;11.484;2023-03-01T09:01:18;31.55;;;15.93;;
68765;SDS011;55756;45.582;11.484;2023-03-01T09:03:44;26.75;;;14.05;;
68765;SDS011;55756;45.582;11.484;2023-03-01T09:06:10;26.55;;;13.77;;
68765;SDS011;55756;45.582;11.484;2023-03-01T09:08:40;24.60;;;12.90;;
68765;SDS011;55756;45.582;11.484;2023-03-01T09:11:08;21.95;;;11.85;;
68765;SDS011;55756;45.582;11.484;2023-03-01T09:13:36;31.75;;;14.18;;
68765;SDS011;55756;45.582;11.484;2023-03-01T09:16:03;42.90;;;26.92;;
68765;SDS011;55756;45.582;11.484;2023-03-01T09:18:30;53.83;;;37.00;;
68765;SDS011;55756;45.582;11.484;2023-03-01T09:21:12;48.45;;;29.50;;
68765;SDS011;55756;45.582;11.484;2023-03-01T09:23:41;27.02;;;15.50;;
68765;SDS011;55756;45.582;11.484;2023-03-01T09:26:12;24.30;;;12.85;;
68765;SDS011;55756;45.582;11.484;2023-03-01T09:28:44;17.30;;;9.95;;
68765;SDS011;55756;45.582;11.484;2023-03-01T09:31:11;18.50;;;9.93;;
68765;SDS011;55756;45.582;11.484;2023-03-01T09:33:41;18.33;;;9.65;;
68765;SDS011;55756;45.582;11.484;2023-03-01T09:36:18;14.77;;;8.65;;
68765;SDS011;55756;45.582;11.484;2023-03-01T09:38:45;17.02;;;9.40;;
68765;SDS011;55756;45.582;11.484;2023-03-01T09:47:12;19.05;;;9.35;;
68765;SDS011;55756;45.582;11.484;2023-03-01T09:49:45;17.73;;;9.05;;
68765;SDS011;55756;45.582;11.484;2023-03-01T09:52:28;21.70;;;9.48;;
68765;SDS011;55756;45.582;11.484;2023-03-01T09:54:59;17.30;;;9.30;;
68765;SDS011;55756;45.582;11.484;2023-03-01T10:02:39;15.60;;;8.60;;
68765;SDS011;55756;45.582;11.484;2023-03-01T10:10:18;16.40;;;9.50;;
68765;SDS011;55756;45.582;11.484;2023-03-01T10:12:59;17.58;;;8.75;;
68765;SDS011;55756;45.582;11.484;2023-03-01T10:15:34;15.25;;;8.20;;
68765;SDS011;55756;45.582;11.484;2023-03-01T10:18:38;14.43;;;8.10;;
68765;SDS011;55756;45.582;11.484;2023-03-01T10:20:59;16.58;;;8.40;;
68765;SDS011;55756;45.582;11.484;2023-03-01T10:23:27;16.08;;;8.57;;
68765;SDS011;55756;45.582;11.484;2023-03-01T10:31:55;19.95;;;9.90;;
68765;SDS011;55756;45.582;11.484;2023-03-01T10:34:22;16.88;;;8.80;;
68765;SDS011;55756;45.582;11.484;2023-03-01T10:36:53;14.90;;;8.10;;
68765;SDS011;55756;45.582;11.484;2023-03-01T10:39:28;14.80;;;8.23;;
68765;SDS011;55756;45.582;11.484;2023-03-01T10:41:58;13.82;;;7.80;;
68765;SDS011;55756;45.582;11.484;2023-03-01T10:47:11;14.35;;;7.25;;
68765;SDS011;55756;45.582;11.484;2023-03-01T10:50:00;15.38;;;8.07;;
68765;SDS011;55756;45.582;11.484;2023-03-01T10:52:35;27.17;;;15.98;;
68765;SDS011;55756;45.582;11.484;2023-03-01T10:55:04;30.30;;;16.20;;
68765;SDS011;55756;45.582;11.484;2023-03-01T10:57:42;18.85;;;10.80;;
68765;SDS011;55756;45.582;11.484;2023-03-01T11:00:19;19.00;;;8.80;;
68765;SDS011;55756;45.582;11.484;2023-03-01T11:03:09;15.73;;;8.00;;
68765;SDS011;55756;45.582;11.484;2023-03-01T11:05:44;13.10;;;6.20;;
68765;SDS011;55756;45.582;11.484;2023-03-01T11:08:33;19.15;;;8.05;;
68765;SDS011;55756;45.582;11.484;2023-03-01T11:13:55;14.25;;;7.40;;
68765;SDS011;55756;45.582;11.484;2023-03-01T11:16:35;14.45;;;6.05;;
68765;SDS011;55756;45.582;11.484;2023-03-01T11:21:56;10.25;;;5.57;;
68765;SDS011;55756;45.582;11.484;2023-03-01T11:24:53;12.43;;;5.85;;
68765;SDS011;55756;45.582;11.484;2023-03-01T11:27:33;14.35;;;5.65;;
68765;SDS011;55756;45.582;11.484;2023-03-01T11:30:20;12.60;;;5.47;;
68765;SDS011;55756;45.582;11.484;2023-03-01T11:33:17;10.98;;;4.43;;
68765;SDS011;55756;45.582;11.484;2023-03-01T11:35:53;11.55;;;4.65;;
68765;SDS011;55756;45.582;11.484;2023-03-01T11:38:23;15.45;;;5.05;;
68765;SDS011;55756;45.582;11.484;2023-03-01T11:41:02;10.60;;;4.53;;
68765;SDS011;55756;45.582;11.484;2023-03-01T11:56:58;12.75;;;4.78;;
68765;SDS011;55756;45.582;11.484;2023-03-01T11:59:39;13.40;;;4.68;;
68765;SDS011;55756;45.582;11.484;2023-03-01T12:10:28;16.60;;;4.20;;
68765;SDS011;55756;45.582;11.484;2023-03-01T12:13:03;22.50;;;4.40;;
68765;SDS011;55756;45.582;11.484;2023-03-01T12:21:34;18.90;;;4.53;;
68765;SDS011;55756;45.582;11.484;2023-03-01T12:40:25;26.17;;;4.60;;
68765;SDS011;55756;45.582;11.484;2023-03-01T12:50:42;22.05;;;4.70;;
68765;SDS011;55756;45.582;11.484;2023-03-01T12:53:34;14.82;;;4.40;;
68765;SDS011;55756;45.582;11.484;2023-03-01T12:56:11;26.10;;;4.95;;
68765;SDS011;55756;45.582;11.484;2023-03-01T13:13:07;16.30;;;4.90;;
68765;SDS011;55756;45.582;11.484;2023-03-01T13:15:39;16.95;;;4.65;;
68765;SDS011;55756;45.582;11.484;2023-03-01T13:28:46;15.23;;;4.68;;
68765;SDS011;55756;45.582;11.484;2023-03-01T13:33:45;15.70;;;5.20;;
68765;SDS011;55756;45.582;11.484;2023-03-01T13:38:58;11.85;;;4.65;;
68765;SDS011;55756;45.582;11.484;2023-03-01T13:49:49;17.00;;;6.40;;
68765;SDS011;55756;45.582;11.484;2023-03-01T13:52:39;19.80;;;6.15;;
68765;SDS011;55756;45.582;11.484;2023-03-01T13:57:38;18.23;;;6.35;;
68765;SDS011;55756;45.582;11.484;2023-03-01T14:00:07;18.13;;;6.78;;
68765;SDS011;55756;45.582;11.484;2023-03-01T14:03:00;15.38;;;6.47;;
68765;SDS011;55756;45.582;11.484;2023-03-01T14:05:41;13.38;;;5.65;;
68765;SDS011;55756;45.582;11.484;2023-03-01T14:08:20;16.92;;;5.25;;
68765;SDS011;55756;45.582;11.484;2023-03-01T14:10:54;18.63;;;5.60;;
68765;SDS011;55756;45.582;11.484;2023-03-01T14:21:34;12.70;;;5.13;;
68765;SDS011;55756;45.582;11.484;2023-03-01T14:24:02;12.75;;;4.90;;
68765;SDS011;55756;45.582;11.484;2023-03-01T14:26:28;16.75;;;5.50;;
68765;SDS011;55756;45.582;11.484;2023-03-01T14:28:57;14.30;;;5.25;;
68765;SDS011;55756;45.582;11.484;2023-03-01T14:31:36;11.98;;;5.22;;
68765;SDS011;55756;45.582;11.484;2023-03-01T14:34:04;20.75;;;5.75;;
68765;SDS011;55756;45.582;11.484;2023-03-01T14:36:32;11.63;;;5.63;;
68765;SDS011;55756;45.582;11.484;2023-03-01T14:39:00;15.18;;;6.15;;
68765;SDS011;55756;45.582;11.484;2023-03-01T14:41:31;16.90;;;5.60;;
68765;SDS011;55756;45.582;11.484;2023-03-01T14:44:00;18.17;;;6.60;;
68765;SDS011;55756;45.582;11.484;2023-03-01T14:51:42;14.80;;;6.07;;
68765;SDS011;55756;45.582;11.484;2023-03-01T14:54:40;14.82;;;6.80;;
68765;SDS011;55756;45.582;11.484;2023-03-01T14:57:22;18.05;;;6.50;;
68765;SDS011;55756;45.582;11.484;2023-03-01T14:59:52;18.95;;;6.80;;
68765;SDS011;55756;45.582;11.484;2023-03-01T15:02:21;18.73;;;7.25;;
68765;SDS011;55756;45.582;11.484;2023-03-01T15:04:56;16.55;;;7.22;;
68765;SDS011;55756;45.582;11.484;2023-03-01T15:07:26;13.70;;;6.55;;
68765;SDS011;55756;45.582;11.484;2023-03-01T15:09:56;16.23;;;6.82;;
68765;SDS011;55756;45.582;11.484;2023-03-01T15:14:56;19.58;;;6.95;;
68765;SDS011;55756;45.582;11.484;2023-03-01T15:17:32;17.67;;;7.18;;
68765;SDS011;55756;45.582;11.484;2023-03-01T15:20:14;16.60;;;6.50;;
68765;SDS011;55756;45.582;11.484;2023-03-01T15:22:45;20.92;;;7.82;;
68765;SDS011;55756;45.582;11.484;2023-03-01T15:25:23;18.60;;;6.90;;
68765;SDS011;55756;45.582;11.484;2023-03-01T15:27:51;17.60;;;6.60;;
68765;SDS011;55756;45.582;11.484;2023-03-01T15:32:45;23.17;;;8.88;;
68765;SDS011;55756;45.582;11.484;2023-03-01T15:40:59;17.45;;;7.70;;
68765;SDS011;55756;45.582;11.484;2023-03-01T15:43:46;18.55;;;8.05;;
68765;SDS011;55756;45.582;11.484;2023-03-01T15:46:54;17.50;;;8.48;;
68765;SDS011;55756;45.582;11.484;2023-03-01T15:49:17;16.25;;;7.47;;
68765;SDS011;55756;45.582;11.484;2023-03-01T15:52:08;18.73;;;8.55;;
68765;SDS011;55756;45.582;11.484;2023-03-01T15:54:54;19.92;;;8.85;;
68765;SDS011;55756;45.582;11.484;2023-03-01T15:57:21;21.38;;;9.57;;
68765;SDS011;55756;45.582;11.484;2023-03-01T15:59:47;18.27;;;9.52;;
68765;SDS011;55756;45.582;11.484;2023-03-01T16:02:12;19.83;;;9.90;;
68765;SDS011;55756;45.582;11.484;2023-03-01T16:04:39;20.73;;;9.18;;
68765;SDS011;55756;45.582;11.484;2023-03-01T16:07:05;18.90;;;9.52;;
68765;SDS011;55756;45.582;11.484;2023-03-01T16:09:31;20.98;;;9.55;;
68765;SDS011;55756;45.582;11.484;2023-03-01T16:11:57;19.17;;;9.88;;
68765;SDS011;55756;45.582;11.484;2023-03-01T16:14:27;21.60;;;10.20;;
68765;SDS011;55756;45.582;11.484;2023-03-01T16:16:52;25.23;;;12.07;;
68765;SDS011;55756;45.582;11.484;2023-03-01T16:19:18;24.08;;;11.85;;
68765;SDS011;55756;45.582;11.484;2023-03-01T16:21:45;26.38;;;11.15;;
68765;SDS011;55756;45.582;11.484;2023-03-01T16:24:12;30.23;;;14.65;;
68765;SDS011;55756;45.582;11.484;2023-03-01T16:26:38;26.48;;;11.25;;
68765;SDS011;55756;45.582;11.484;2023-03-01T16:29:04;19.05;;;9.85;;
68765;SDS011;55756;45.582;11.484;2023-03-01T16:31:30;18.15;;;8.63;;
68765;SDS011;55756;45.582;11.484;2023-03-01T16:33:57;18.20;;;8.95;;
68765;SDS011;55756;45.582;11.484;2023-03-01T16:36:25;16.95;;;8.98;;
68765;SDS011;55756;45.582;11.484;2023-03-01T16:38:53;21.95;;;9.00;;
68765;SDS011;55756;45.582;11.484;2023-03-01T16:41:22;20.77;;;10.90;;
68765;SDS011;55756;45.582;11.484;2023-03-01T16:43:51;19.95;;;10.13;;
68765;SDS011;55756;45.582;11.484;2023-03-01T16:46:18;22.60;;;9.43;;
68765;SDS011;55756;45.582;11.484;2023-03-01T16:48:46;17.73;;;8.80;;
68765;SDS011;55756;45.582;11.484;2023-03-01T16:51:13;16.75;;;7.78;;
68765;SDS011;55756;45.582;11.484;2023-03-01T16:53:39;19.25;;;8.90;;
68765;SDS011;55756;45.582;11.484;2023-03-01T16:56:06;20.45;;;8.80;;
68765;SDS011;55756;45.582;11.484;2023-03-01T16:58:37;17.83;;;8.40;;
68765;SDS011;55756;45.582;11.484;2023-03-01T17:01:06;18.75;;;8.70;;
68765;SDS011;55756;45.582;11.484;2023-03-01T17:03:43;19.47;;;9.20;;
68765;SDS011;55756;45.582;11.484;2023-03-01T17:06:10;19.65;;;8.75;;
68765;SDS011;55756;45.582;11.484;2023-03-01T17:08:37;16.45;;;8.57;;
68765;SDS011;55756;45.582;11.484;2023-03-01T17:11:08;19.67;;;8.98;;
68765;SDS011;55756;45.582;11.484;2023-03-01T17:13:36;17.67;;;8.77;;
68765;SDS011;55756;45.582;11.484;2023-03-01T17:16:04;15.45;;;8.90;;
68765;SDS011;55756;45.582;11.484;2023-03-01T17:18:31;15.03;;;9.07;;
68765;SDS011;55756;45.582;11.484;2023-03-01T17:20:57;18.90;;;9.10;;
68765;SDS011;55756;45.582;11.484;2023-03-01T17:23:23;16.48;;;8.65;;